createdAt,value
2018-09-24T00:01:54.343Z,100784.55
2018-09-24T00:04:22.968Z,100791.56
2018-09-24T00:06:51.582Z,100791.52
2018-09-24T00:09:20.439Z,100802.90
2018-09-24T00:11:48.973Z,100802.87
2018-09-24T00:14:17.569Z,100812.91
2018-09-24T00:16:46.170Z,100816.37
2018-09-24T00:19:14.735Z,100819.02
2018-09-24T00:21:43.246Z,100828.17
2018-09-24T00:24:11.896Z,100825.09
2018-09-24T00:26:40.443Z,100835.98
2018-09-24T00:29:08.981Z,100839.92
2018-09-24T00:31:37.440Z,100842.08
2018-09-24T00:34:05.982Z,100843.38
2018-09-24T00:36:34.490Z,100656.55
2018-09-24T00:39:03.045Z,100847.70
2018-09-24T00:41:31.571Z,100846.36
2018-09-24T00:44:00.039Z,100846.35
2018-09-24T00:46:28.563Z,100848.95
2018-09-24T00:48:57.051Z,100852.89
2018-09-24T00:51:25.513Z,100855.05
2018-09-24T00:53:53.999Z,100858.09
2018-09-24T00:56:22.591Z,100865.52
2018-09-24T00:58:51.055Z,100871.57
2018-09-24T01:01:19.544Z,100886.84
2018-09-24T01:03:48.109Z,100887.70
2018-09-24T01:06:16.623Z,100898.17
2018-09-24T01:08:45.136Z,100898.57
2018-09-24T01:11:13.627Z,100906.43
2018-09-24T01:13:42.166Z,100915.18
2018-09-24T01:16:10.643Z,100922.63
2018-09-24T01:18:39.216Z,100926.55
2018-09-24T01:21:07.715Z,100956.77
2018-09-24T01:23:36.229Z,100935.41
2018-09-24T01:26:04.830Z,100942.89
2018-09-24T01:28:33.310Z,100945.52
2018-09-24T01:31:01.793Z,100943.79
2018-09-24T01:33:30.296Z,100951.22
2018-09-24T01:35:58.809Z,100952.14
2018-09-24T01:38:27.291Z,100959.16
2018-09-24T01:40:55.804Z,100963.10
2018-09-24T01:43:24.285Z,100971.88
2018-09-24T01:45:52.819Z,100975.41
2018-09-24T01:48:21.306Z,100979.32
2018-09-24T01:50:49.814Z,100979.75
2018-09-24T01:53:18.309Z,100977.94
2018-09-24T01:55:49.980Z,100989.72
2018-09-24T01:58:18.481Z,100989.23
2018-09-24T02:00:47.011Z,100998.80
2018-09-24T02:03:15.481Z,100997.47
2018-09-24T02:05:44.066Z,101001.38
2018-09-24T02:08:12.539Z,101003.97
2018-09-24T02:10:41.073Z,101007.02
2018-09-24T02:13:09.617Z,101001.31
2018-09-24T02:15:38.258Z,101003.88
2018-09-24T02:18:06.784Z,101009.51
2018-09-24T02:20:41.322Z,101019.55
2018-09-24T02:23:09.839Z,101011.71
2018-09-24T02:25:39.622Z,101018.27
2018-09-24T02:28:08.215Z,101017.81
2018-09-24T02:30:36.835Z,101022.66
2018-09-24T02:33:10.711Z,101025.75
2018-09-24T02:35:42.914Z,101028.00
2018-09-24T02:38:11.461Z,101032.89
2018-09-24T02:40:39.989Z,101035.58
2018-09-24T02:43:08.532Z,101036.03
2018-09-24T02:45:37.063Z,101033.87
2018-09-24T02:48:05.613Z,101043.09
2018-09-24T02:50:37.985Z,101057.51
2018-09-24T02:53:07.500Z,101052.27
2018-09-24T02:55:36.012Z,101059.69
2018-09-24T02:58:04.667Z,101061.00
2018-09-24T03:00:33.527Z,101071.09
2018-09-24T03:03:08.095Z,101068.96
2018-09-24T03:05:36.751Z,101074.23
2018-09-24T03:08:12.382Z,101081.65
2018-09-24T03:10:41.382Z,101089.06
2018-09-24T03:13:09.930Z,101091.59
2018-09-24T03:15:39.758Z,101095.08
2018-09-24T03:18:09.218Z,101091.55
2018-09-24T03:20:43.135Z,101090.57
2018-09-24T03:23:11.691Z,101098.38
2018-09-24T03:25:40.592Z,101100.50
2018-09-24T03:28:09.289Z,101098.66
2018-09-24T03:30:40.837Z,101107.78
2018-09-24T03:33:09.387Z,101106.00
2018-09-24T03:35:37.941Z,101105.94
2018-09-24T03:38:06.563Z,101109.36
2018-09-24T03:40:35.173Z,101106.67
2018-09-24T03:43:03.824Z,101106.62
2018-09-24T03:45:32.357Z,101098.28
2018-09-24T03:48:00.857Z,101100.42
2018-09-24T03:50:29.355Z,101103.02
2018-09-24T03:52:57.906Z,101108.22
2018-09-24T03:55:26.540Z,101109.49
2018-09-24T03:57:55.059Z,101117.34
2018-09-24T04:00:23.616Z,101120.34
2018-09-24T04:02:52.072Z,101131.65
2018-09-24T04:05:25.896Z,101138.16
2018-09-24T04:07:59.533Z,101139.88
2018-09-24T04:10:33.191Z,101146.80
2018-09-24T04:13:06.937Z,101154.59
2018-09-24T04:15:40.891Z,101152.83
2018-09-24T04:18:14.747Z,101160.20
2018-09-24T04:20:48.401Z,101163.67
2018-09-24T04:23:22.047Z,101163.67
2018-09-24T04:25:55.893Z,101163.23
2018-09-24T04:28:29.516Z,101176.31
2018-09-24T04:31:03.327Z,101177.62
2018-09-24T04:33:36.939Z,101174.07
2018-09-24T04:36:10.681Z,101180.16
2018-09-24T04:38:44.550Z,101180.16
2018-09-24T04:41:18.182Z,101183.16
2018-09-24T04:43:51.800Z,101184.02
2018-09-24T04:46:25.384Z,101180.50
2018-09-24T04:48:59.060Z,101180.95
2018-09-24T04:51:32.722Z,101194.03
2018-09-24T04:54:06.482Z,101183.48
2018-09-24T04:56:40.246Z,101186.55
2018-09-24T04:59:13.951Z,101194.36
2018-09-24T05:01:47.787Z,101195.63
2018-09-24T05:04:21.410Z,101212.64
2018-09-24T05:06:55.252Z,101211.70
2018-09-24T05:09:28.942Z,101220.00
2018-09-24T05:12:02.759Z,101219.95
2018-09-24T05:14:36.330Z,101227.84
2018-09-24T05:17:10.251Z,101233.94
2018-09-24T05:19:43.868Z,101235.38
2018-09-24T05:22:17.671Z,101238.56
2018-09-24T05:24:51.321Z,101237.30
2018-09-24T05:27:25.159Z,101239.54
2018-09-24T05:29:58.894Z,101238.64
2018-09-24T05:32:32.810Z,101245.19
2018-09-24T05:35:06.476Z,101248.70
2018-09-24T05:37:40.068Z,101256.59
2018-09-24T05:40:13.719Z,101253.56
2018-09-24T05:42:47.400Z,101258.43
2018-09-24T05:45:21.274Z,101262.47
2018-09-24T05:47:54.985Z,101271.72
2018-09-24T05:50:28.627Z,101267.87
2018-09-24T05:53:02.219Z,101272.28
2018-09-24T05:55:35.924Z,101281.08
2018-09-24T05:58:09.836Z,101288.15
2018-09-24T06:00:43.526Z,101287.36
2018-09-24T06:03:17.128Z,101294.43
2018-09-24T06:05:50.968Z,101298.40
2018-09-24T06:08:24.794Z,101299.38
2018-09-24T06:10:58.516Z,101240.86
2018-09-24T06:13:32.534Z,101316.31
2018-09-24T06:16:06.274Z,101318.37
2018-09-24T06:18:40.209Z,101321.83
2018-09-24T06:21:13.949Z,101335.47
2018-09-24T06:23:47.647Z,101328.03
2018-09-24T06:26:21.257Z,101337.23
2018-09-24T06:28:55.029Z,101340.20
2018-09-24T06:31:28.732Z,101336.06
2018-09-24T06:34:02.394Z,101340.19
2018-09-24T06:36:35.905Z,101346.39
2018-09-24T06:39:10.332Z,101346.29
2018-09-24T06:41:43.897Z,101349.61
2018-09-24T06:44:17.738Z,101351.94
2018-09-24T06:46:51.708Z,101356.00
2018-09-24T06:49:25.343Z,101347.73
2018-09-24T06:51:59.080Z,101353.83
2018-09-24T06:54:32.829Z,101351.56
2018-09-24T06:57:06.434Z,101358.33
2018-09-24T06:59:40.313Z,101358.45
2018-09-24T07:02:13.912Z,101357.91
2018-09-24T07:04:47.608Z,101372.50
2018-09-24T07:07:21.492Z,101371.23
2018-09-24T07:09:55.115Z,101378.33
2018-09-24T07:12:28.824Z,101374.96
2018-09-24T07:15:02.737Z,101383.47
2018-09-24T07:17:36.625Z,101389.20
2018-09-24T07:20:10.402Z,101389.05
2018-09-24T07:22:44.151Z,101395.11
2018-09-24T07:25:17.907Z,101398.89
2018-09-24T07:27:51.574Z,101406.98
2018-09-24T07:30:25.338Z,101402.58
2018-09-24T07:32:59.123Z,101406.72
2018-09-24T07:35:32.843Z,101381.55
2018-09-24T07:38:06.451Z,101407.69
2018-09-24T07:40:40.443Z,101415.68
2018-09-24T07:43:14.083Z,101420.37
2018-09-24T07:45:47.893Z,101421.27
2018-09-24T07:48:21.538Z,101429.39
2018-09-24T07:50:55.436Z,101432.48
2018-09-24T07:53:29.109Z,101423.05
2018-09-24T07:56:02.932Z,101432.56
2018-09-24T07:58:36.920Z,101437.16
2018-09-24T08:01:10.584Z,101440.55
2018-09-24T08:06:35.339Z,101451.59
2018-09-24T08:09:09.287Z,101459.47
2018-09-24T08:11:43.048Z,101463.50
2018-09-24T08:14:16.819Z,101464.97
2018-09-24T08:16:50.730Z,101476.20
2018-09-24T08:19:24.697Z,101485.75
2018-09-24T08:21:58.596Z,101489.88
2018-09-24T08:24:32.556Z,101483.12
2018-09-24T08:27:06.377Z,101491.74
2018-09-24T08:29:40.267Z,101491.05
2018-09-24T08:32:14.080Z,101490.78
2018-09-24T08:34:47.920Z,101497.59
2018-09-24T08:37:21.554Z,101498.78
2018-09-24T08:39:55.266Z,101506.42
2018-09-24T08:42:29.129Z,101510.06
2018-09-24T08:45:03.049Z,101513.72
2018-09-24T08:47:36.791Z,101508.84
2018-09-24T08:50:10.662Z,101522.56
2018-09-24T08:52:44.442Z,101524.91
2018-09-24T08:55:18.277Z,101523.77
2018-09-24T08:57:52.193Z,101518.47
2018-09-24T09:00:26.192Z,101524.75
2018-09-24T09:03:00.134Z,101522.06
2018-09-24T09:05:34.168Z,101519.72
2018-09-24T09:08:08.208Z,101517.14
2018-09-24T09:10:42.264Z,101510.52
2018-09-24T09:13:16.229Z,101508.22
2018-09-24T09:15:50.187Z,101513.75
2018-09-24T09:18:24.228Z,101514.70
2018-09-24T09:20:57.919Z,101508.82
2018-09-24T09:23:31.797Z,101522.45
2018-09-24T09:26:05.804Z,101522.93
2018-09-24T09:28:39.712Z,101529.13
2018-09-24T09:31:13.760Z,101525.30
2018-09-24T09:33:47.697Z,101527.84
2018-09-24T09:36:22.305Z,101526.88
2018-09-24T09:38:56.161Z,101530.26
2018-09-24T09:41:29.991Z,101549.89
2018-09-24T09:44:03.791Z,101531.89
2018-09-24T09:46:37.597Z,101549.07
2018-09-24T09:49:11.473Z,101552.80
2018-09-24T09:51:45.324Z,101547.91
2018-09-24T09:54:19.243Z,101554.97
2018-09-24T09:56:52.928Z,101541.95
2018-09-24T09:59:26.744Z,101542.66
2018-09-24T10:02:00.726Z,101538.39
2018-09-24T10:04:34.628Z,101537.62
2018-09-24T10:07:08.416Z,101540.91
2018-09-24T10:09:42.208Z,101545.03
2018-09-24T10:12:16.508Z,101533.85
2018-09-24T10:14:50.201Z,101532.23
2018-09-24T10:17:24.276Z,101537.74
2018-09-24T10:19:58.091Z,101535.18
2018-09-24T10:22:32.059Z,101525.69
2018-09-24T10:25:05.900Z,101529.36
2018-09-24T10:27:39.782Z,101534.24
2018-09-24T10:30:13.779Z,101533.61
2018-09-24T10:32:47.633Z,101534.91
2018-09-24T10:35:21.582Z,101527.36
2018-09-24T10:37:55.401Z,101533.30
2018-09-24T10:40:29.197Z,101530.77
2018-09-24T10:43:03.436Z,101526.06
2018-09-24T10:45:37.112Z,101526.34
2018-09-24T10:48:11.603Z,101532.23
2018-09-24T10:50:50.478Z,101532.98
2018-09-24T10:53:24.416Z,101526.70
2018-09-24T10:55:58.500Z,101536.41
2018-09-24T10:58:32.520Z,101526.14
2018-09-24T11:01:06.411Z,101530.39
2018-09-24T11:03:40.742Z,101530.84
2018-09-24T11:06:14.560Z,101539.29
2018-09-24T11:08:48.220Z,101541.94
2018-09-24T11:11:22.392Z,101547.55
2018-09-24T11:13:56.254Z,101544.83
2018-09-24T11:16:30.130Z,101553.64
2018-09-24T11:19:03.904Z,101552.52
2018-09-24T11:21:38.027Z,101549.67
2018-09-24T11:24:12.786Z,101547.02
2018-09-24T11:26:47.747Z,101537.56
2018-09-24T11:29:21.601Z,101544.30
2018-09-24T11:31:55.415Z,101548.34
2018-09-24T11:34:29.212Z,101546.02
2018-09-24T11:37:02.994Z,101550.98
2018-09-24T11:39:36.837Z,101547.76
2018-09-24T11:42:10.387Z,101545.56
2018-09-24T11:44:44.567Z,101536.50
2018-09-24T11:47:18.688Z,101540.86
2018-09-24T11:49:52.436Z,101542.63
2018-09-24T11:52:26.484Z,101538.23
2018-09-24T11:55:00.288Z,101532.06
2018-09-24T11:57:34.240Z,101534.06
2018-09-24T12:00:08.101Z,101537.01
2018-09-24T12:02:42.112Z,101539.59
2018-09-24T12:05:16.276Z,101508.66
2018-09-24T12:07:49.974Z,101535.76
2018-09-24T12:10:23.828Z,101534.53
2018-09-24T12:12:57.707Z,101526.74
2018-09-24T12:15:31.295Z,101528.39
2018-09-24T12:18:05.071Z,101526.95
2018-09-24T12:20:39.054Z,101530.51
2018-09-24T12:23:12.976Z,101535.66
2018-09-24T12:25:46.708Z,101525.08
2018-09-24T12:28:20.525Z,101524.63
2018-09-24T12:30:54.535Z,101531.78
2018-09-24T12:33:28.452Z,101521.91
2018-09-24T12:36:02.153Z,101533.73
2018-09-24T12:38:35.933Z,101526.92
2018-09-24T12:41:09.964Z,101530.86
2018-09-24T12:43:43.962Z,101543.90
2018-09-24T12:46:17.896Z,101545.15
2018-09-24T12:48:51.626Z,101549.15
2018-09-24T12:51:25.597Z,101556.75
2018-09-24T12:53:59.273Z,101556.45
2018-09-24T12:56:33.043Z,101554.55
2018-09-24T12:59:06.900Z,101538.70
2018-09-24T13:01:40.619Z,101531.34
2018-09-24T13:04:14.639Z,101408.64
2018-09-24T13:06:48.811Z,101535.14
2018-09-24T13:09:22.632Z,101534.53
2018-09-24T13:11:56.837Z,101526.13
2018-09-24T13:14:30.567Z,101527.11
2018-09-24T13:17:04.411Z,101528.23
2018-09-24T13:19:38.121Z,101527.76
2018-09-24T13:22:12.035Z,101520.57
2018-09-24T13:24:45.693Z,101519.02
2018-09-24T13:27:19.663Z,101516.28
2018-09-24T13:29:54.120Z,101515.17
2018-09-24T13:35:30.019Z,101519.03
2018-09-24T13:38:04.266Z,101518.22
2018-09-24T13:40:37.851Z,101521.39
2018-09-24T13:43:11.617Z,101529.40
2018-09-24T13:45:45.758Z,101532.70
2018-09-24T13:48:19.497Z,101536.64
2018-09-24T13:50:53.124Z,101528.59
2018-09-24T13:53:26.806Z,101525.05
2018-09-24T13:56:00.427Z,101529.69
2018-09-24T13:58:34.259Z,101529.55
2018-09-24T14:01:07.928Z,101535.30
2018-09-24T14:03:41.707Z,101529.72
2018-09-24T14:06:15.397Z,101532.19
2018-09-24T14:08:49.408Z,101521.75
2018-09-24T14:11:23.229Z,101517.61
2018-09-24T14:13:57.715Z,101521.28
2018-09-24T14:16:31.476Z,101523.17
2018-09-24T14:19:05.292Z,101536.42
2018-09-24T14:21:38.856Z,101517.30
2018-09-24T14:24:12.374Z,101513.25
2018-09-24T14:26:46.140Z,101518.36
2018-09-24T14:29:19.945Z,101520.34
2018-09-24T14:31:53.743Z,101520.03
2018-09-24T14:34:27.571Z,101525.80
2018-09-24T14:37:01.337Z,101522.79
2018-09-24T14:39:35.345Z,101522.70
2018-09-24T14:42:09.364Z,101535.73
2018-09-24T14:44:43.276Z,101529.38
2018-09-24T14:47:17.234Z,101540.27
2018-09-24T14:49:51.186Z,101531.36
2018-09-24T14:52:25.062Z,101526.81
2018-09-24T14:54:58.633Z,101528.44
2018-09-24T14:57:32.351Z,101529.06
2018-09-24T15:00:06.132Z,101516.43
2018-09-24T15:02:39.817Z,101536.73
2018-09-24T15:05:13.680Z,101516.95
2018-09-24T15:07:47.854Z,101524.71
2018-09-24T15:10:21.675Z,101533.22
2018-09-24T15:12:55.720Z,101528.70
2018-09-24T15:15:29.529Z,101541.95
2018-09-24T15:18:03.294Z,101537.47
2018-09-24T15:20:37.200Z,101533.60
2018-09-24T15:23:10.887Z,101543.38
2018-09-24T15:25:44.610Z,101535.27
2018-09-24T15:28:18.412Z,101543.98
2018-09-24T15:30:52.274Z,101538.95
2018-09-24T15:33:26.276Z,101540.34
2018-09-24T15:36:00.031Z,101535.05
2018-09-24T15:38:33.832Z,101531.61
2018-09-24T15:41:07.826Z,101528.63
2018-09-24T15:43:41.751Z,101530.12
2018-09-24T15:46:15.752Z,101541.25
2018-09-24T15:48:49.574Z,101541.73
2018-09-24T15:51:23.302Z,101593.48
2018-09-24T15:53:56.865Z,101540.85
2018-09-24T15:56:31.255Z,101538.78
2018-09-24T15:59:05.334Z,101546.86
2018-09-24T16:01:39.330Z,101555.37
2018-09-24T16:04:13.609Z,101564.33
2018-09-24T16:06:47.484Z,101565.33
2018-09-24T16:09:21.306Z,101560.52
2018-09-24T16:11:54.971Z,101565.43
2018-09-24T16:14:28.712Z,101567.19
2018-09-24T16:17:02.420Z,101571.16
2018-09-24T16:19:36.324Z,101569.41
2018-09-24T16:22:09.960Z,101580.05
2018-09-24T16:24:43.786Z,101575.28
2018-09-24T16:27:17.571Z,101570.92
2018-09-24T16:29:51.507Z,101570.49
2018-09-24T16:32:25.209Z,101570.93
2018-09-24T16:34:59.053Z,101572.30
2018-09-24T16:37:34.168Z,101575.86
2018-09-24T16:40:07.774Z,101579.02
2018-09-24T16:42:41.764Z,101581.74
2018-09-24T16:45:15.427Z,101580.06
2018-09-24T16:47:49.525Z,101580.14
2018-09-24T16:50:23.388Z,101579.84
2018-09-24T16:52:56.987Z,101587.84
2018-09-24T16:55:30.623Z,101593.19
2018-09-24T16:58:04.422Z,101601.61
2018-09-24T17:00:38.195Z,101614.87
2018-09-24T17:03:12.208Z,101475.09
2018-09-24T17:05:46.149Z,101610.47
2018-09-24T17:08:19.885Z,101614.89
2018-09-24T17:10:53.869Z,101618.48
2018-09-24T17:13:27.809Z,101617.60
2018-09-24T17:16:01.737Z,101619.39
2018-09-24T17:18:35.429Z,101619.41
2018-09-24T17:21:09.707Z,101626.47
2018-09-24T17:23:43.385Z,101620.77
2018-09-24T17:26:17.186Z,101631.80
2018-09-24T17:28:51.028Z,101628.77
2018-09-24T17:31:24.644Z,101638.02
2018-09-24T17:33:58.486Z,101637.10
2018-09-24T17:36:32.241Z,101641.52
2018-09-24T17:39:06.143Z,101641.94
2018-09-24T17:41:39.819Z,101641.51
2018-09-24T17:44:13.722Z,101643.68
2018-09-24T17:46:47.453Z,101648.53
2018-09-24T17:49:21.315Z,101646.75
2018-09-24T17:51:55.565Z,101660.35
2018-09-24T17:54:29.509Z,101661.22
2018-09-24T17:57:03.381Z,101663.39
2018-09-24T17:59:37.156Z,101661.63
2018-09-24T18:02:10.884Z,101662.48
2018-09-24T18:04:44.907Z,101669.91
2018-09-24T18:07:18.878Z,101669.39
2018-09-24T18:09:52.568Z,101681.23
2018-09-24T18:12:26.271Z,101681.23
2018-09-24T18:15:00.105Z,101681.63
2018-09-24T18:17:33.958Z,101684.21
2018-09-24T18:20:08.060Z,101684.18
2018-09-24T18:22:41.947Z,101696.45
2018-09-24T18:25:15.845Z,101692.03
2018-09-24T18:27:50.101Z,101692.43
2018-09-24T18:30:23.908Z,101698.16
2018-09-24T18:32:57.757Z,101703.84
2018-09-24T18:35:31.755Z,101709.52
2018-09-24T18:38:05.600Z,101710.81
2018-09-24T18:40:41.844Z,101718.68
2018-09-24T18:43:15.822Z,101722.21
2018-09-24T18:45:49.749Z,101721.75
2018-09-24T18:48:23.919Z,101730.58
2018-09-24T18:50:57.612Z,101730.16
2018-09-24T18:53:31.339Z,101735.89
2018-09-24T18:56:05.168Z,101735.00
2018-09-24T18:58:38.884Z,101738.55
2018-09-24T19:01:12.950Z,101740.36
2018-09-24T19:03:46.797Z,101736.88
2018-09-24T19:06:20.591Z,101744.83
2018-09-24T19:08:54.602Z,101746.59
2018-09-24T19:11:28.513Z,101749.67
2018-09-24T19:14:02.311Z,101755.39
2018-09-24T19:16:36.202Z,101752.31
2018-09-24T19:19:09.999Z,101757.59
2018-09-24T19:21:43.592Z,101761.92
2018-09-24T19:24:17.544Z,101765.39
2018-09-24T19:26:51.302Z,101766.63
2018-09-24T19:29:26.056Z,101767.03
2018-09-24T19:31:59.954Z,101765.30
2018-09-24T19:34:33.998Z,101763.56
2018-09-24T19:37:07.841Z,101773.22
2018-09-24T19:39:41.325Z,101774.56
2018-09-24T19:42:15.351Z,101774.11
2018-09-24T19:44:49.133Z,101778.50
2018-09-24T19:47:22.972Z,101779.34
2018-09-24T19:49:56.648Z,101776.69
2018-09-24T19:52:30.290Z,101785.42
2018-09-24T19:55:04.227Z,101781.41
2018-09-24T19:57:37.908Z,101790.14
2018-09-24T20:00:11.725Z,101782.59
2018-09-24T20:02:45.289Z,101788.63
2018-09-24T20:05:19.129Z,101787.64
2018-09-24T20:07:52.841Z,101792.38
2018-09-24T20:10:26.690Z,101800.19
2018-09-24T20:13:00.395Z,101796.58
2018-09-24T20:15:34.204Z,101802.63
2018-09-24T20:18:07.956Z,101804.73
2018-09-24T20:20:41.821Z,101805.09
2018-09-24T20:23:15.634Z,101805.44
2018-09-24T20:25:49.447Z,101802.27
2018-09-24T20:28:22.984Z,101803.94
2018-09-24T20:30:56.747Z,101807.38
2018-09-24T20:33:30.628Z,101805.12
2018-09-24T20:36:04.351Z,101809.42
2018-09-24T20:38:38.087Z,101813.74
2018-09-24T20:41:11.859Z,101814.57
2018-09-24T20:43:45.571Z,101814.02
2018-09-24T20:46:19.508Z,101811.32
2018-09-24T20:48:53.353Z,101819.13
2018-09-24T20:51:27.003Z,101820.37
2018-09-24T20:54:00.795Z,101825.97
2018-09-24T20:56:34.568Z,101831.19
2018-09-24T20:59:08.314Z,101838.95
2018-09-24T21:01:42.152Z,101868.66
2018-09-24T21:04:16.021Z,101839.25
2018-09-24T21:06:49.587Z,101844.05
2018-09-24T21:09:23.306Z,101847.47
2018-09-24T21:11:57.140Z,101857.11
2018-09-24T21:14:31.872Z,101855.27
2018-09-24T21:17:05.773Z,101860.03
2018-09-24T21:19:39.520Z,101864.34
2018-09-24T21:22:13.274Z,101866.06
2018-09-24T21:24:47.032Z,101862.48
2018-09-24T21:27:20.891Z,101865.11
2018-09-24T21:29:54.806Z,101869.41
2018-09-24T21:32:28.584Z,101867.61
2018-09-24T21:35:02.480Z,101872.81
2018-09-24T21:37:36.410Z,101877.56
2018-09-24T21:40:10.115Z,101878.79
2018-09-24T21:42:43.881Z,101883.95
2018-09-24T21:45:17.618Z,101887.80
2018-09-24T21:47:51.364Z,101887.70
2018-09-24T21:50:25.132Z,101888.97
2018-09-24T21:52:59.019Z,101889.27
2018-09-24T21:55:33.261Z,101890.90
2018-09-24T21:58:07.315Z,101898.67
2018-09-24T22:00:41.330Z,101897.72
2018-09-24T22:03:15.047Z,101905.54
2018-09-24T22:05:48.829Z,101911.55
2018-09-24T22:08:22.581Z,101879.61
2018-09-24T22:10:56.414Z,101907.05
2018-09-24T22:13:30.313Z,101906.95
2018-09-24T22:16:04.039Z,101900.80
2018-09-24T22:18:37.830Z,101899.03
2018-09-24T22:21:11.624Z,101896.80
2018-09-24T22:23:45.347Z,101902.80
2018-09-24T22:26:19.065Z,101901.39
2018-09-24T22:28:52.894Z,101901.34
2018-09-24T22:31:26.802Z,101899.48
2018-09-24T22:34:00.687Z,101901.59
2018-09-24T22:36:34.508Z,101901.99
2018-09-24T22:39:08.396Z,101904.52
2018-09-24T22:41:42.166Z,101908.39
2018-09-24T22:44:16.067Z,101907.03
2018-09-24T22:46:49.918Z,101912.27
2018-09-24T22:49:23.956Z,101911.80
2018-09-24T22:51:57.713Z,101920.02
2018-09-24T22:54:31.416Z,101917.74
2018-09-24T22:57:05.161Z,101924.64
2018-09-24T22:59:38.871Z,101918.50
2018-09-24T23:02:12.608Z,101925.03
2018-09-24T23:04:46.450Z,101926.25
2018-09-24T23:07:20.218Z,101920.94
2018-09-24T23:09:53.908Z,101923.50
2018-09-24T23:12:27.662Z,101926.92
2018-09-24T23:15:01.357Z,101927.33
2018-09-24T23:17:35.144Z,101922.06
2018-09-24T23:20:08.838Z,101920.66
2018-09-24T23:22:42.592Z,101924.11
2018-09-24T23:25:16.396Z,101925.78
2018-09-24T23:27:50.171Z,101925.19
2018-09-24T23:30:23.948Z,101925.59
2018-09-24T23:32:57.819Z,101929.47
2018-09-24T23:35:31.580Z,101925.86
2018-09-24T23:38:05.548Z,101933.72
2018-09-24T23:40:39.295Z,101926.71
2018-09-24T23:43:13.177Z,101925.80
2018-09-24T23:45:47.340Z,101925.69
2018-09-24T23:48:21.007Z,101928.30
2018-09-24T23:50:54.844Z,101918.61
2018-09-24T23:53:28.693Z,101913.71
2018-09-24T23:56:02.420Z,101920.20
2018-09-24T23:58:36.470Z,101917.52
